createdAt,value
2023-05-20T00:00:05.760Z,368.0000
2023-05-20T00:01:06.870Z,364.0000
2023-05-20T00:02:07.779Z,372.4615
2023-05-20T00:03:08.862Z,374.6154
2023-05-20T00:04:10.108Z,373.7692
2023-05-20T00:05:10.954Z,368.6923
2023-05-20T00:06:11.975Z,372.4615
2023-05-20T00:07:12.998Z,370.3077
2023-05-20T00:08:14.017Z,367.3077
2023-05-20T00:09:15.055Z,361.6154
2023-05-20T00:10:16.135Z,365.6923
2023-05-20T00:11:17.196Z,365.9231
2023-05-20T00:12:18.257Z,371.0769
2023-05-20T00:13:19.246Z,373.7692
2023-05-20T00:14:20.239Z,360.6154
2023-05-20T00:15:21.337Z,360.3077
2023-05-20T00:16:22.428Z,371.9231
2023-05-20T00:17:23.359Z,373.2308
2023-05-20T00:18:24.376Z,372.1538
2023-05-20T00:19:25.563Z,367.4615
2023-05-20T00:20:26.543Z,371.0000
2023-05-20T00:21:27.591Z,375.5385
2023-05-20T00:22:28.573Z,372.4615
2023-05-20T00:23:29.619Z,384.0769
2023-05-20T00:24:30.656Z,390.4615
2023-05-20T00:25:31.921Z,387.6154
2023-05-20T00:26:32.791Z,384.8462
2023-05-20T00:27:33.769Z,385.2308
2023-05-20T00:28:34.776Z,387.0769
2023-05-20T00:29:35.835Z,386.3846
2023-05-20T00:30:36.950Z,397.6923
2023-05-20T00:31:38.034Z,408.2308
2023-05-20T00:32:38.993Z,406.8462
2023-05-20T00:33:40.026Z,396.0769
2023-05-20T00:34:41.015Z,416.1538
2023-05-20T00:35:42.155Z,437.0769
2023-05-20T00:36:43.172Z,447.3077
2023-05-20T00:37:44.188Z,422.1538
2023-05-20T00:38:45.189Z,393.3846
2023-05-20T00:39:46.238Z,380.4615
2023-05-20T00:40:47.298Z,378.7692
2023-05-20T00:41:48.376Z,374.0769
2023-05-20T00:42:49.325Z,371.8462
2023-05-20T00:43:50.430Z,365.7692
2023-05-20T00:44:51.433Z,368.9231
2023-05-20T00:45:52.531Z,373.1538
2023-05-20T00:46:53.534Z,376.9231
2023-05-20T00:47:54.600Z,380.5385
2023-05-20T00:48:55.592Z,373.7692
2023-05-20T00:49:56.673Z,373.3077
2023-05-20T00:50:57.694Z,375.2308
2023-05-20T00:51:58.760Z,376.0769
2023-05-20T00:52:59.782Z,372.7692
2023-05-20T00:54:00.827Z,365.6923
2023-05-20T00:55:01.809Z,361.7692
2023-05-20T00:56:02.956Z,364.6154
2023-05-20T00:57:03.974Z,369.7692
2023-05-20T00:58:04.951Z,364.0769
2023-05-20T00:59:05.974Z,364.1538
2023-05-20T01:00:07.033Z,364.4615
2023-05-20T01:01:08.186Z,362.3846
2023-05-20T01:02:09.241Z,356.3077
2023-05-20T01:03:10.274Z,355.2308
2023-05-20T01:04:11.211Z,355.2308
2023-05-20T01:05:12.240Z,372.0769
2023-05-20T01:06:13.332Z,375.2308
2023-05-20T01:07:14.392Z,377.0769
2023-05-20T01:08:15.351Z,379.5385
2023-05-20T01:09:16.397Z,377.1538
2023-05-20T01:10:17.452Z,383.5385
2023-05-20T01:11:18.552Z,386.8462
2023-05-20T01:12:19.571Z,398.6923
2023-05-20T01:13:20.555Z,411.6154
2023-05-20T01:14:21.566Z,411.6154
2023-05-20T01:15:22.678Z,404.6923
2023-05-20T01:16:23.809Z,391.7692
2023-05-20T01:17:24.753Z,385.0000
2023-05-20T01:18:25.752Z,385.6154
2023-05-20T01:19:26.846Z,389.7692
2023-05-20T01:20:27.816Z,382.3846
2023-05-20T01:21:28.986Z,381.3846
2023-05-20T01:22:29.974Z,388.8462
2023-05-20T01:23:30.984Z,404.0000
2023-05-20T01:24:31.995Z,423.8462
2023-05-20T01:25:33.179Z,446.3077
2023-05-20T01:26:34.171Z,458.2308
2023-05-20T01:27:35.170Z,467.3077
2023-05-20T01:28:36.167Z,475.0000
2023-05-20T01:29:37.265Z,464.2308
2023-05-20T01:30:38.318Z,446.3077
2023-05-20T01:31:39.541Z,450.6154
2023-05-20T01:32:40.411Z,457.5385
2023-05-20T01:33:41.430Z,456.3846
2023-05-20T01:34:42.499Z,458.3077
2023-05-20T01:35:43.509Z,464.0000
2023-05-20T01:36:44.620Z,459.2308
2023-05-20T01:37:45.710Z,470.9231
2023-05-20T01:38:46.633Z,468.3846
2023-05-20T01:39:47.684Z,462.4615
2023-05-20T01:40:48.692Z,457.4615
2023-05-20T01:41:49.737Z,459.0769
2023-05-20T01:42:50.757Z,459.6154
2023-05-20T01:43:51.784Z,451.0769
2023-05-20T01:44:52.792Z,448.0769
2023-05-20T01:45:53.815Z,458.0000
2023-05-20T01:46:54.946Z,465.3846
2023-05-20T01:47:55.939Z,467.6923
2023-05-20T01:48:56.936Z,469.3846
2023-05-20T01:49:57.979Z,472.4615
2023-05-20T01:50:59.006Z,475.7692
2023-05-20T01:52:00.012Z,461.8462
2023-05-20T01:53:01.137Z,450.3077
2023-05-20T01:54:02.128Z,456.7692
2023-05-20T01:55:03.198Z,468.9231
2023-05-20T01:56:04.197Z,460.3077
2023-05-20T01:57:05.235Z,458.7692
2023-05-20T01:58:06.270Z,459.0769
2023-05-20T01:59:07.311Z,454.0000
2023-05-20T02:00:08.366Z,459.0769
2023-05-20T02:01:09.395Z,454.0769
2023-05-20T02:02:10.421Z,465.5385
2023-05-20T02:03:11.455Z,475.2308
2023-05-20T02:04:12.511Z,474.5385
2023-05-20T02:05:13.581Z,468.8462
2023-05-20T02:06:14.575Z,452.0769
2023-05-20T02:07:15.597Z,449.7692
2023-05-20T02:08:16.635Z,443.3846
2023-05-20T02:09:17.709Z,433.2308
2023-05-20T02:10:18.773Z,407.6923
2023-05-20T02:11:19.751Z,402.9231
2023-05-20T02:12:20.823Z,409.5385
2023-05-20T02:13:21.835Z,405.5385
2023-05-20T02:14:22.920Z,406.2308
2023-05-20T02:15:23.955Z,401.8462
2023-05-20T02:16:25.027Z,402.6923
2023-05-20T02:17:25.999Z,412.1538
2023-05-20T02:18:27.058Z,437.0000
2023-05-20T02:19:28.208Z,449.3077
2023-05-20T02:20:29.173Z,464.1538
2023-05-20T02:21:30.126Z,467.3077
2023-05-20T02:22:31.209Z,471.6923
2023-05-20T02:23:32.238Z,473.4615
2023-05-20T02:24:33.337Z,474.4615
2023-05-20T02:25:34.547Z,480.1538
2023-05-20T02:26:35.338Z,478.2308
2023-05-20T02:27:36.381Z,483.0769
2023-05-20T02:28:37.417Z,480.0769
2023-05-20T02:29:38.453Z,481.4615
2023-05-20T02:30:39.540Z,463.1538
2023-05-20T02:31:40.517Z,455.3077
2023-05-20T02:32:41.645Z,445.9231
2023-05-20T02:33:42.647Z,445.6154
2023-05-20T02:34:43.683Z,447.9231
2023-05-20T02:35:44.711Z,459.3846
2023-05-20T02:36:45.770Z,472.2308
2023-05-20T02:37:46.745Z,472.0769
2023-05-20T02:38:47.808Z,471.3077
2023-05-20T02:39:48.823Z,466.6154
2023-05-20T02:40:49.923Z,465.4615
2023-05-20T02:41:50.939Z,465.2308
2023-05-20T02:42:51.964Z,471.7692
2023-05-20T02:43:52.978Z,473.6154
2023-05-20T02:44:54.022Z,475.9231
2023-05-20T02:45:55.077Z,474.2308
2023-05-20T02:46:56.145Z,468.6923
2023-05-20T02:47:57.172Z,464.1538
2023-05-20T02:48:58.203Z,462.3846
2023-05-20T02:49:59.231Z,453.3077
2023-05-20T02:51:00.335Z,454.6154
2023-05-20T02:52:01.364Z,459.9231
2023-05-20T02:53:02.389Z,460.3846
2023-05-20T02:54:03.380Z,462.0000
2023-05-20T02:55:04.474Z,458.2308
2023-05-20T02:56:05.535Z,456.6154
2023-05-20T02:57:06.603Z,457.6923
2023-05-20T02:58:07.539Z,462.0769
2023-05-20T02:59:08.640Z,463.2308
2023-05-20T03:00:09.656Z,463.4615
2023-05-20T03:01:10.729Z,460.6923
2023-05-20T03:02:11.727Z,463.2308
2023-05-20T03:03:12.795Z,455.3077
2023-05-20T03:04:13.820Z,457.6154
2023-05-20T03:05:14.894Z,455.9231
2023-05-20T03:06:15.903Z,461.3077
2023-05-20T03:07:16.975Z,467.6154
2023-05-20T03:08:17.994Z,466.9231
2023-05-20T03:09:19.003Z,469.6923
2023-05-20T03:10:20.026Z,465.6923
2023-05-20T03:11:21.036Z,470.0000
2023-05-20T03:12:22.146Z,466.3846
2023-05-20T03:13:23.155Z,467.1538
2023-05-20T03:14:24.175Z,461.4615
2023-05-20T03:15:25.216Z,460.6154
2023-05-20T03:16:26.300Z,461.7692
2023-05-20T03:17:27.296Z,463.1538
2023-05-20T03:18:28.380Z,464.2308
2023-05-20T03:19:29.410Z,447.0769
2023-05-20T03:20:30.414Z,447.9231
2023-05-20T03:21:31.442Z,452.1538
2023-05-20T03:22:32.515Z,455.3846
2023-05-20T03:23:33.527Z,467.0769
2023-05-20T03:24:34.615Z,467.6923
2023-05-20T03:25:35.744Z,467.1538
2023-05-20T03:26:36.634Z,472.8462
2023-05-20T03:27:37.715Z,473.9231
2023-05-20T03:28:38.735Z,481.0000
2023-05-20T03:29:39.714Z,471.9231
2023-05-20T03:30:40.784Z,476.4615
2023-05-20T03:31:41.891Z,472.8462
2023-05-20T03:32:42.898Z,473.6923
2023-05-20T03:33:43.897Z,476.2308
2023-05-20T03:34:44.942Z,472.0000
2023-05-20T03:35:45.942Z,473.1538
2023-05-20T03:36:47.029Z,472.5385
2023-05-20T03:37:48.033Z,473.4615
2023-05-20T03:38:49.122Z,478.2308
2023-05-20T03:39:50.112Z,477.3077
2023-05-20T03:40:51.180Z,480.9231
2023-05-20T03:41:52.199Z,475.6923
2023-05-20T03:42:53.296Z,479.9231
2023-05-20T03:43:54.312Z,480.6923
2023-05-20T03:44:55.337Z,470.2308
2023-05-20T03:45:56.323Z,465.2308
2023-05-20T03:46:57.484Z,471.4615
2023-05-20T03:47:58.484Z,469.8462
2023-05-20T03:48:59.493Z,476.0769
2023-05-20T03:50:00.488Z,474.3846
2023-05-20T03:51:01.540Z,467.7692
2023-05-20T03:52:02.550Z,450.5385
2023-05-20T03:53:03.650Z,455.1538
2023-05-20T03:54:04.670Z,470.4615
2023-05-20T03:55:05.714Z,470.0000
2023-05-20T03:56:06.712Z,472.6154
2023-05-20T03:57:07.783Z,476.5385
2023-05-20T03:58:08.828Z,476.3077
2023-05-20T03:59:09.861Z,470.7692
2023-05-20T04:00:10.880Z,468.8462
2023-05-20T04:01:11.939Z,472.4615
2023-05-20T04:02:12.990Z,470.3846
2023-05-20T04:03:14.103Z,472.3846
2023-05-20T04:04:15.236Z,469.4615
2023-05-20T04:05:16.062Z,468.5385
2023-05-20T04:06:17.122Z,468.2308
2023-05-20T04:07:18.172Z,467.3846
2023-05-20T04:08:19.242Z,465.3077
2023-05-20T04:09:20.271Z,469.2308
2023-05-20T04:10:21.272Z,468.3846
2023-05-20T04:11:22.331Z,464.6154
2023-05-20T04:12:23.353Z,459.8462
2023-05-20T04:13:24.394Z,442.0769
2023-05-20T04:14:25.432Z,426.2308
2023-05-20T04:15:26.497Z,404.9231
2023-05-20T04:16:27.535Z,399.3846
2023-05-20T04:17:28.563Z,408.6154
2023-05-20T04:18:29.618Z,412.3077
2023-05-20T04:19:30.714Z,420.3846
2023-05-20T04:20:31.682Z,419.6923
2023-05-20T04:21:32.726Z,430.1538
2023-05-20T04:22:33.727Z,436.5385
2023-05-20T04:23:34.831Z,445.6923
2023-05-20T04:24:35.813Z,447.3846
2023-05-20T04:25:37.094Z,454.4615
2023-05-20T04:26:37.851Z,461.8462
2023-05-20T04:27:38.912Z,467.3077
2023-05-20T04:28:39.951Z,471.3846
2023-05-20T04:29:41.035Z,478.4615
2023-05-20T04:30:42.000Z,469.4615
2023-05-20T04:31:43.090Z,472.2308
2023-05-20T04:32:44.119Z,469.5385
2023-05-20T04:33:45.172Z,476.0000
2023-05-20T04:34:46.197Z,480.9231
2023-05-20T04:35:47.260Z,482.3077
2023-05-20T04:36:48.222Z,468.7692
2023-05-20T04:37:49.300Z,465.6154
2023-05-20T04:38:50.339Z,466.3077
2023-05-20T04:39:51.416Z,466.1538
2023-05-20T04:40:52.410Z,465.9231
2023-05-20T04:41:53.453Z,469.3846
2023-05-20T04:42:54.441Z,479.0769
2023-05-20T04:43:55.557Z,484.9231
2023-05-20T04:44:56.551Z,487.9231
2023-05-20T04:45:57.625Z,486.4615
2023-05-20T04:46:58.594Z,475.6154
2023-05-20T04:47:59.696Z,458.6923
2023-05-20T04:49:00.680Z,469.2308
2023-05-20T04:50:01.784Z,477.2308
2023-05-20T04:51:02.813Z,485.1538
2023-05-20T04:52:03.792Z,483.1538
2023-05-20T04:53:04.818Z,472.4615
2023-05-20T04:54:05.883Z,466.8462
2023-05-20T04:55:06.912Z,447.0769
2023-05-20T04:56:07.972Z,432.7692
2023-05-20T04:57:08.986Z,428.9231
2023-05-20T04:58:10.031Z,428.4615
2023-05-20T04:59:11.058Z,444.5385
2023-05-20T05:00:12.144Z,447.6923
2023-05-20T05:01:13.237Z,452.9231
2023-05-20T05:02:14.187Z,457.6154
2023-05-20T05:03:15.225Z,459.1538
2023-05-20T05:04:16.297Z,470.9231
2023-05-20T05:05:17.315Z,453.7692
2023-05-20T05:06:18.374Z,431.4615
2023-05-20T05:07:19.393Z,443.6923
2023-05-20T05:08:20.447Z,440.3077
2023-05-20T05:09:21.441Z,435.0000
2023-05-20T05:10:22.512Z,439.5385
2023-05-20T05:11:23.561Z,449.7692
2023-05-20T05:12:24.625Z,457.1538
2023-05-20T05:13:25.617Z,451.0000
2023-05-20T05:14:26.675Z,454.0000
2023-05-20T05:15:27.694Z,458.9231
2023-05-20T05:16:28.815Z,468.4615
2023-05-20T05:17:29.837Z,484.7692
2023-05-20T05:18:30.801Z,489.6154
2023-05-20T05:19:31.855Z,498.3846
2023-05-20T05:20:32.878Z,499.2308
2023-05-20T05:21:33.956Z,499.3846
2023-05-20T05:22:34.996Z,500.3077
2023-05-20T05:23:36.034Z,503.3077
2023-05-20T05:24:37.014Z,505.7692
2023-05-20T05:25:38.075Z,499.0769
2023-05-20T05:26:39.132Z,493.3846
2023-05-20T05:27:40.206Z,490.1538
2023-05-20T05:28:41.183Z,488.2308
2023-05-20T05:29:42.302Z,495.5385
2023-05-20T05:30:43.322Z,501.1538
2023-05-20T05:31:44.419Z,504.2308
2023-05-20T05:32:45.551Z,487.6154
2023-05-20T05:33:46.494Z,485.5385
2023-05-20T05:34:47.523Z,483.4615
2023-05-20T05:35:48.556Z,469.7692
2023-05-20T05:36:49.576Z,481.6923
2023-05-20T05:37:50.700Z,492.6923
2023-05-20T05:38:51.694Z,493.4615
2023-05-20T05:39:52.700Z,490.8462
2023-05-20T05:40:53.715Z,499.1538
2023-05-20T05:41:54.773Z,507.8462
2023-05-20T05:42:55.867Z,517.4615
2023-05-20T05:43:56.894Z,509.3077
2023-05-20T05:44:57.873Z,500.1538
2023-05-20T05:45:58.942Z,504.3846
2023-05-20T05:46:59.963Z,504.2308
2023-05-20T05:48:01.123Z,510.3077
2023-05-20T05:49:02.072Z,503.8462
2023-05-20T05:50:03.069Z,494.1538
2023-05-20T05:51:04.098Z,491.7692
2023-05-20T05:52:05.179Z,490.1538
2023-05-20T05:53:06.194Z,492.2308
2023-05-20T05:54:07.283Z,490.2308
2023-05-20T05:55:08.257Z,485.4615
2023-05-20T05:56:09.337Z,481.0769
2023-05-20T05:57:10.342Z,481.1538
2023-05-20T05:58:11.432Z,482.9231
2023-05-20T05:59:12.434Z,482.3846
2023-05-20T06:00:13.491Z,481.3077
2023-05-20T06:01:14.528Z,477.0769
2023-05-20T06:02:15.626Z,478.5385
2023-05-20T06:03:16.731Z,488.4615
2023-05-20T06:04:17.722Z,495.6154
2023-05-20T06:05:18.654Z,489.0000
2023-05-20T06:06:19.691Z,499.5385
2023-05-20T06:07:20.717Z,503.0769
2023-05-20T06:08:21.821Z,498.6923
2023-05-20T06:09:22.817Z,498.4615
2023-05-20T06:10:23.896Z,498.9231
2023-05-20T06:11:24.913Z,485.1538
2023-05-20T06:12:26.024Z,494.2308
2023-05-20T06:13:27.012Z,478.7692
2023-05-20T06:14:28.050Z,478.6923
2023-05-20T06:15:29.069Z,472.6154
2023-05-20T06:16:30.212Z,476.0769
2023-05-20T06:17:31.162Z,461.8462
2023-05-20T06:18:32.240Z,439.0000
2023-05-20T06:19:33.397Z,423.3846
2023-05-20T06:20:34.301Z,432.0000
2023-05-20T06:21:35.319Z,437.3077
2023-05-20T06:22:36.390Z,454.5385
2023-05-20T06:23:37.565Z,464.0769
2023-05-20T06:24:38.510Z,449.5385
2023-05-20T06:25:39.493Z,422.5385
2023-05-20T06:26:40.554Z,414.8462
2023-05-20T06:27:41.582Z,405.6923
2023-05-20T06:28:42.683Z,411.1538
2023-05-20T06:29:44.011Z,399.6923
2023-05-20T06:30:44.814Z,400.3077
2023-05-20T06:31:45.906Z,409.3846
2023-05-20T06:32:46.973Z,415.5385
2023-05-20T06:33:47.954Z,413.3077
2023-05-20T06:34:49.027Z,413.5385
2023-05-20T06:35:49.992Z,401.3077
2023-05-20T06:36:51.016Z,403.0769
2023-05-20T06:37:52.157Z,418.3077
2023-05-20T06:38:53.175Z,412.2308
2023-05-20T06:39:54.220Z,391.6154
2023-05-20T06:40:55.177Z,407.3077
2023-05-20T06:41:56.305Z,422.0769
2023-05-20T06:42:57.272Z,421.7692
2023-05-20T06:43:58.450Z,417.6154
2023-05-20T06:44:59.443Z,427.0000
2023-05-20T06:46:00.424Z,446.0000
2023-05-20T06:47:01.469Z,442.7692
2023-05-20T06:48:02.577Z,444.1538
2023-05-20T06:49:03.551Z,436.3077
2023-05-20T06:50:04.551Z,458.3846
2023-05-20T06:51:05.546Z,475.2308
2023-05-20T06:52:06.576Z,492.4615
2023-05-20T06:53:07.717Z,499.2308
2023-05-20T06:54:08.729Z,501.2308
2023-05-20T06:55:09.709Z,502.0000
2023-05-20T06:56:10.713Z,485.0769
2023-05-20T06:57:11.775Z,462.9231
2023-05-20T06:58:12.802Z,464.0769
2023-05-20T06:59:13.908Z,473.4615
2023-05-20T07:00:14.954Z,463.3077
2023-05-20T07:01:17.925Z,447.3077
2023-05-20T07:02:17.053Z,447.6154
2023-05-20T07:03:18.013Z,461.6154
2023-05-20T07:04:19.022Z,480.0769
2023-05-20T07:05:20.026Z,478.0769
2023-05-20T07:06:21.217Z,478.9231
2023-05-20T07:07:22.049Z,471.4615
2023-05-20T07:08:23.112Z,463.5385
2023-05-20T07:09:24.303Z,454.9231
2023-05-20T07:10:25.206Z,458.0000
2023-05-20T07:11:26.241Z,462.0769
2023-05-20T07:12:27.271Z,462.9231
2023-05-20T07:13:28.280Z,450.2308
2023-05-20T07:14:29.384Z,445.2308
2023-05-20T07:15:30.417Z,453.0769
2023-05-20T07:16:31.539Z,445.0000
2023-05-20T07:17:32.501Z,435.6923
2023-05-20T07:18:33.546Z,431.0769
2023-05-20T07:19:34.578Z,441.0000
2023-05-20T07:20:35.615Z,453.3846
2023-05-20T07:21:36.598Z,446.6154
2023-05-20T07:22:37.698Z,434.8462
2023-05-20T07:23:38.685Z,426.8462
2023-05-20T07:24:39.792Z,424.1538
2023-05-20T07:25:40.816Z,428.4615
2023-05-20T07:26:41.845Z,439.3077
2023-05-20T07:27:42.855Z,433.4615
2023-05-20T07:28:43.896Z,424.0769
2023-05-20T07:29:44.962Z,415.7692
2023-05-20T07:30:45.985Z,421.2308
2023-05-20T07:31:47.052Z,410.1538
2023-05-20T07:32:48.118Z,410.4615
2023-05-20T07:33:49.075Z,418.3077
2023-05-20T07:34:50.400Z,422.2308
2023-05-20T07:35:51.199Z,433.2308
2023-05-20T07:36:52.229Z,452.0000
2023-05-20T07:37:53.258Z,461.3077
2023-05-20T07:39:03.167Z,462.0000
2023-05-20T07:39:55.340Z,463.5385
2023-05-20T07:40:56.423Z,458.6154
2023-05-20T07:41:57.401Z,467.4615
2023-05-20T07:42:58.447Z,470.6923
2023-05-20T07:43:59.495Z,473.5385
2023-05-20T07:45:00.600Z,471.6154
2023-05-20T07:46:01.587Z,464.6154
2023-05-20T07:47:02.609Z,467.3077
2023-05-20T07:48:03.685Z,467.0000
2023-05-20T07:49:04.693Z,475.7692
2023-05-20T07:50:05.730Z,465.0769
2023-05-20T07:51:06.771Z,471.8462
2023-05-20T07:52:07.818Z,482.4615
2023-05-20T07:53:08.812Z,482.7692
2023-05-20T07:54:09.841Z,447.3077
2023-05-20T07:55:10.952Z,442.4615
2023-05-20T07:56:11.943Z,450.0769
2023-05-20T07:57:12.988Z,458.5385
2023-05-20T07:58:14.016Z,472.6154
2023-05-20T07:59:15.013Z,453.4615
2023-05-20T08:00:16.098Z,456.9231
2023-05-20T08:01:17.124Z,451.2308
2023-05-20T08:02:18.232Z,447.0769
2023-05-20T08:03:19.326Z,450.9231
2023-05-20T08:04:20.254Z,463.8462
2023-05-20T08:05:21.276Z,471.6923
2023-05-20T08:06:22.314Z,468.6154
2023-05-20T08:07:23.296Z,456.4615
2023-05-20T08:08:24.401Z,447.6923
2023-05-20T08:09:25.380Z,460.8462
2023-05-20T08:10:26.459Z,468.3077
2023-05-20T08:11:27.538Z,479.6923
2023-05-20T08:12:28.615Z,470.3077
2023-05-20T08:13:29.544Z,465.8462
2023-05-20T08:14:30.575Z,456.3077
2023-05-20T08:15:31.761Z,452.9231
2023-05-20T08:16:32.752Z,459.6154
2023-05-20T08:17:33.713Z,454.7692
2023-05-20T08:18:34.765Z,460.3846
2023-05-20T08:19:35.861Z,451.6923
2023-05-20T08:20:36.849Z,441.8462
2023-05-20T08:21:37.865Z,454.4615
2023-05-20T08:22:38.916Z,463.2308
2023-05-20T08:23:40.644Z,465.6923
2023-05-20T08:24:41.010Z,467.6154
2023-05-20T08:25:42.025Z,458.3077
2023-05-20T08:26:43.097Z,452.0769
2023-05-20T08:27:44.084Z,445.1538
2023-05-20T08:28:45.145Z,438.1538
2023-05-20T08:29:46.152Z,447.8462
2023-05-20T08:30:47.334Z,450.4615
2023-05-20T08:31:48.239Z,437.2308
2023-05-20T08:32:49.320Z,448.5385
2023-05-20T08:33:50.262Z,457.7692
2023-05-20T08:34:51.312Z,460.6154
2023-05-20T08:35:52.372Z,464.6923
2023-05-20T08:36:53.412Z,466.5385
2023-05-20T08:37:54.421Z,458.6923
2023-05-20T08:38:55.455Z,464.2308
2023-05-20T08:39:56.558Z,461.4615
2023-05-20T08:40:57.565Z,452.9231
2023-05-20T08:41:58.598Z,443.1538
2023-05-20T08:42:59.823Z,449.3846
2023-05-20T08:44:00.665Z,442.3077
2023-05-20T08:45:01.682Z,452.3846
2023-05-20T08:46:02.771Z,449.5385
2023-05-20T08:47:03.843Z,451.3846
2023-05-20T08:48:04.809Z,470.3077
2023-05-20T08:49:05.835Z,482.6154
2023-05-20T08:50:06.845Z,478.3077
2023-05-20T08:51:07.929Z,476.9231
2023-05-20T08:52:08.983Z,487.8462
2023-05-20T08:53:09.969Z,486.3846
2023-05-20T08:54:10.994Z,465.6923
2023-05-20T08:55:12.057Z,457.7692
2023-05-20T08:56:13.074Z,451.3077
2023-05-20T08:57:14.186Z,429.0000
2023-05-20T08:58:15.133Z,439.0769
2023-05-20T08:59:16.199Z,447.2308
2023-05-20T09:00:17.285Z,455.0769
2023-05-20T09:01:18.343Z,431.6923
2023-05-20T09:02:19.339Z,439.5385
2023-05-20T09:03:20.382Z,445.6923
2023-05-20T09:04:21.414Z,465.7692
2023-05-20T09:05:22.433Z,475.5385
2023-05-20T09:06:23.505Z,482.6154
2023-05-20T09:07:24.549Z,469.5385
2023-05-20T09:08:25.528Z,460.1538
2023-05-20T09:09:26.581Z,453.8462
2023-05-20T09:10:27.606Z,451.2308
2023-05-20T09:11:28.713Z,450.7692
2023-05-20T09:12:29.703Z,462.7692
2023-05-20T09:13:30.694Z,477.0769
2023-05-20T09:14:31.823Z,459.9231
2023-05-20T09:15:33.102Z,458.6923
2023-05-20T09:16:33.931Z,469.7692
2023-05-20T09:17:34.959Z,481.6154
2023-05-20T09:18:35.896Z,477.1538
2023-05-20T09:19:37.033Z,464.4615
2023-05-20T09:20:37.962Z,470.2308
2023-05-20T09:21:39.034Z,443.8462
2023-05-20T09:22:40.061Z,444.2308
2023-05-20T09:23:41.135Z,449.8462
2023-05-20T09:24:42.127Z,474.0000
2023-05-20T09:25:43.143Z,488.6154
2023-05-20T09:26:44.185Z,486.5385
2023-05-20T09:27:45.247Z,486.0769
2023-05-20T09:28:46.258Z,492.3077
2023-05-20T09:29:47.324Z,491.0000
2023-05-20T09:30:48.400Z,478.8462
2023-05-20T09:31:49.465Z,468.0000
2023-05-20T09:32:50.515Z,468.3846
2023-05-20T09:33:51.490Z,472.7692
2023-05-20T09:34:52.601Z,477.5385
2023-05-20T09:35:53.521Z,469.4615
2023-05-20T09:36:54.571Z,444.9231
2023-05-20T09:37:55.688Z,436.9231
2023-05-20T09:38:56.778Z,446.6154
2023-05-20T09:39:57.638Z,460.4615
2023-05-20T09:40:58.706Z,481.4615
2023-05-20T09:42:00.537Z,479.9231
2023-05-20T09:43:00.837Z,463.1538
2023-05-20T09:44:01.808Z,460.6923
2023-05-20T09:45:02.842Z,476.4615
2023-05-20T09:46:03.879Z,482.6923
2023-05-20T09:47:07.000Z,488.0769
2023-05-20T09:48:06.037Z,476.8462
2023-05-20T09:49:07.015Z,465.6154
2023-05-20T09:50:07.996Z,466.0000
2023-05-20T09:51:09.086Z,465.6154
2023-05-20T09:52:10.064Z,465.3077
2023-05-20T09:53:11.217Z,483.3077
2023-05-20T09:54:12.150Z,500.6923
2023-05-20T09:55:13.210Z,493.0769
2023-05-20T09:56:14.190Z,492.6154
2023-05-20T09:57:15.233Z,490.6923
2023-05-20T09:58:16.534Z,496.5385
2023-05-20T09:59:17.434Z,495.4615
2023-05-20T10:00:18.351Z,493.6154
2023-05-20T10:01:19.416Z,502.3077
2023-05-20T10:02:20.554Z,511.3846
2023-05-20T10:03:21.740Z,485.7692
2023-05-20T10:04:22.493Z,476.8462
2023-05-20T10:05:23.569Z,472.6923
2023-05-20T10:06:24.706Z,467.2308
2023-05-20T10:07:40.626Z,472.8462
2023-05-20T10:08:26.685Z,480.3846
2023-05-20T10:09:27.860Z,477.1538
2023-05-20T10:10:28.721Z,473.0000
2023-05-20T10:11:29.731Z,469.3077
2023-05-20T10:12:30.748Z,479.3077
2023-05-20T10:13:31.813Z,480.3846
2023-05-20T10:14:32.866Z,467.1538
2023-05-20T10:15:34.225Z,476.2308
2023-05-20T10:16:34.905Z,489.0769
2023-05-20T10:17:35.956Z,495.0000
2023-05-20T10:18:37.018Z,498.8462
2023-05-20T10:19:38.055Z,500.0000
2023-05-20T10:20:39.038Z,489.6154
2023-05-20T10:21:40.038Z,460.7692
2023-05-20T10:22:41.368Z,441.6923
2023-05-20T10:23:42.284Z,437.2308
2023-05-20T10:24:43.205Z,432.9231
2023-05-20T10:25:44.197Z,434.2308
2023-05-20T10:26:45.240Z,454.0769
2023-05-20T10:27:46.300Z,461.0769
2023-05-20T10:28:47.366Z,463.3077
2023-05-20T10:30:49.413Z,465.0000
2023-05-20T10:31:50.442Z,456.8462
2023-05-20T10:32:51.532Z,456.5385
2023-05-20T10:33:52.488Z,457.6154
2023-05-20T10:34:53.577Z,452.6923
2023-05-20T10:35:54.536Z,445.6154
2023-05-20T10:36:55.612Z,466.0000
2023-05-20T10:37:56.642Z,482.0769
2023-05-20T10:38:57.715Z,474.5385
2023-05-20T10:39:58.721Z,468.3077
2023-05-20T10:40:59.798Z,485.3077
2023-05-20T10:42:00.745Z,504.5385
2023-05-20T10:43:01.792Z,513.5385
2023-05-20T10:44:02.884Z,520.3077
2023-05-20T10:45:03.922Z,517.5385
2023-05-20T10:46:07.552Z,504.3846
2023-05-20T10:47:24.461Z,499.6154
2023-05-20T10:48:07.036Z,495.6923
2023-05-20T10:49:08.194Z,493.4615
2023-05-20T10:50:09.114Z,494.5385
2023-05-20T10:51:10.115Z,497.1538
2023-05-20T10:52:11.140Z,496.0769
2023-05-20T10:53:21.653Z,483.3846
2023-05-20T10:54:13.234Z,466.9231
2023-05-20T10:55:14.281Z,463.3077
2023-05-20T10:56:15.344Z,448.8462
2023-05-20T10:57:16.296Z,428.8462
2023-05-20T10:58:17.375Z,427.1538
2023-05-20T10:59:18.418Z,438.3077
2023-05-20T11:00:19.688Z,440.9231
2023-05-20T11:01:20.575Z,452.9231
2023-05-20T11:02:21.545Z,452.4615
2023-05-20T11:03:22.773Z,447.3077
2023-05-20T11:04:23.591Z,449.6923
2023-05-20T11:05:24.636Z,441.2308
2023-05-20T11:06:25.707Z,448.4615
2023-05-20T11:07:26.691Z,456.3846
2023-05-20T11:08:29.439Z,445.0000
2023-05-20T11:09:28.739Z,436.7692
2023-05-20T11:10:29.859Z,444.0000
2023-05-20T11:11:30.854Z,465.5385
2023-05-20T11:12:31.960Z,463.0000
2023-05-20T11:13:32.966Z,444.5385
2023-05-20T11:14:34.082Z,450.7692
2023-05-20T11:15:34.993Z,456.5385
2023-05-20T11:16:36.089Z,449.8462
2023-05-20T11:17:37.171Z,456.2308
2023-05-20T11:18:38.109Z,454.2308
2023-05-20T11:19:39.152Z,439.2308
2023-05-20T11:20:40.173Z,448.7692
2023-05-20T11:21:41.260Z,461.1538
2023-05-20T11:22:42.288Z,457.3846
2023-05-20T11:23:43.377Z,450.1538
2023-05-20T11:24:44.346Z,432.9231
2023-05-20T11:25:45.422Z,424.6154
2023-05-20T11:26:46.407Z,447.2308
2023-05-20T11:27:47.487Z,447.8462
2023-05-20T11:28:48.494Z,448.6923
2023-05-20T11:29:49.513Z,455.5385
2023-05-20T11:30:50.532Z,458.8462
2023-05-20T11:31:51.631Z,466.4615
2023-05-20T11:32:52.773Z,451.3846
2023-05-20T11:33:53.700Z,433.4615
2023-05-20T11:34:54.681Z,438.0769
2023-05-20T11:35:55.722Z,452.4615
2023-05-20T11:36:56.729Z,440.9231
2023-05-20T11:37:57.817Z,451.0769
2023-05-20T11:38:58.878Z,447.5385
2023-05-20T11:39:59.867Z,451.8462
2023-05-20T11:41:00.903Z,463.7692
2023-05-20T11:42:01.949Z,452.9231
2023-05-20T11:43:03.010Z,452.9231
2023-05-20T11:44:04.053Z,465.3846
2023-05-20T11:45:05.044Z,452.7692
2023-05-20T11:46:06.115Z,445.3846
2023-05-20T11:47:07.098Z,451.0000
2023-05-20T11:48:08.229Z,445.9231
2023-05-20T11:49:09.229Z,448.4615
2023-05-20T11:50:10.246Z,461.0000
2023-05-20T11:51:11.254Z,468.0000
2023-05-20T11:52:12.294Z,468.1538
2023-05-20T11:53:13.312Z,461.4615
2023-05-20T11:54:14.421Z,456.3846
2023-05-20T11:55:15.442Z,460.9231
2023-05-20T11:56:16.433Z,470.0769
2023-05-20T11:57:17.455Z,467.4615